IJD Airport (Windham) Information

FAA: IJD - ICAO: KIJD

IJD Airport Location

State Connecticut
County Windham
City Willimantic
IJD Airport is 3 miles northeast of Willimantic, CT.
Latitude 41-44-38.5000N
Longitude 072-10-48.8000W
Elevation 246ft

KIJD Airport METARs

METAR KIJD 281324Z AUTO 02010G19KT 10SM BKN022 BKN046 09/03 A2998 RMK AO2 T00890033
Altimeter 29.98"
Temperature 8.9°C (48.0°F)
Wind 20° at 10KT with gusts to 19KT
Clouds broken at 2,200ft broken at 4,600ft
Visibility 10.0mi
Time observed: 2021-10-28T13:24:00Z

IJD Airport Details

Status Operational
Activation April 1940
Ownership Public
Usage Public
Chart NEW YORK
ATC on-site No
Beacon schedule sunset-sunrise
Beacon color clear green

IJD Airport Contacts

Owner CONNECTICUT AIRPORT AUTHORITY
Owner address SUITE 160, 334 ELLA GRASSO TURNPIKE, WINDSOR LOCKS, CT 06096
Owner phone 860-292-2000
Manager KIMBERLY A. KALAJAINEN
Manager address 56 FRANKLIN ST, WATERBURY, CT 06726
Manager phone (203) 709-3508

IJD Airport (Windham) Radio Frequencies

IJD (Airport) Radio Frequencies

UNICOM 122.975
Common traffic advisory frequency (CTAF) 122.975